Wetterstation-Oberesslingen
Wetterdaten: aktuell Samstag, 21.09.2019 00:15
Datum Zeit Temperatur BodenT. -10 Temp+5cm Luftfeuchte Bod.Feuchte Luftdruck Regen Wind Richtung Richtung Sonnenschein ET Solar Taupunkt Windchill Windben
21.09.2019 00:15 6,6 C 14,4 C 2,8 C 85 % 43 cb 1024,4 hPa 0,0 l/m 1,1 km/h (1 Bft) O-NO 67 0 min 0,000 mm 0 W/m 4,3 C 6,6 C 1,1 km/h (1 Bft)
20.09.2019 23:15 7,4 C 14,4 C 3,3 C 82 % 43 cb 1024,9 hPa 0,0 l/m 1,1 km/h (1 Bft) O-NO 67 0 min 0,000 mm 0 W/m 4,5 C 7,4 C 1,1 km/h (1 Bft)
20.09.2019 22:15 8,6 C 14,4 C 3,9 C 78 % 43 cb 1025,4 hPa 0,0 l/m 1,6 km/h (1 Bft) O-NO 67 0 min 0,000 mm 0 W/m 5,0 C 8,6 C 4,3 km/h (1 Bft)
20.09.2019 21:15 9,9 C 14,4 C 5,0 C 73 % 42 cb 1025,7 hPa 0,0 l/m 1,1 km/h (1 Bft) O-NO 67 0 min 0,000 mm 0 W/m 5,3 C 9,9 C 1,1 km/h (1 Bft)
20.09.2019 20:15 12,4 C 14,4 C 6,7 C 61 % 42 cb 1025,7 hPa 0,0 l/m 1,2 km/h (1 Bft) O-NO 67 0 min 0,001 mm 0 W/m 5,1 C 12,4 C 2,7 km/h (1 Bft)
20.09.2019 19:15 15,8 C 14,4 C 11,7 C 46 % 42 cb 1025,4 hPa 0,0 l/m 2,6 km/h (1 Bft) N-NO 28 35 min 0,101 mm 14 W/m 4,2 C 15,8 C 12,4 km/h (2 Bft)
20.09.2019 18:15 18,1 C 14,4 C 16,7 C 38 % 42 cb 1025,4 hPa 0,0 l/m 7,2 km/h (2 Bft) O 94 60 min 0,001 mm 137 W/m 3,6 C 18,1 C 12,4 km/h (2 Bft)
20.09.2019 17:15 18,8 C 14,4 C 17,2 C 39 % 41 cb 1025,5 hPa 0,0 l/m 5,8 km/h (2 Bft) W-NW 287 60 min 0,279 mm 320 W/m 4,6 C 18,8 C 10,8 km/h (2 Bft)
20.09.2019 16:15 18,7 C 14,4 C 18,3 C 38 % 41 cb 1026,1 hPa 0,0 l/m 7,6 km/h (2 Bft) NW 317 60 min 0,330 mm 410 W/m 4,1 C 18,7 C 12,4 km/h (2 Bft)
20.09.2019 15:15 18,6 C 14,4 C 19,4 C 37 % 41 cb 1026,5 hPa 0,0 l/m 5,8 km/h (2 Bft) O-SO 103 60 min 0,001 mm 485 W/m 3,6 C 18,6 C 18,8 km/h (3 Bft)
20.09.2019 14:15 18,2 C 13,9 C 22,2 C 38 % 41 cb 1027,1 hPa 0,0 l/m 9,9 km/h (2 Bft) S-SO 148 60 min 0,431 mm 612 W/m 3,7 C 18,2 C 17,2 km/h (3 Bft)
20.09.2019 13:15 16,7 C 13,9 C 19,4 C 42 % 41 cb 1027,8 hPa 0,0 l/m 10,8 km/h (2 Bft) SO 126 60 min 0,001 mm 534 W/m 3,7 C 16,7 C 20,4 km/h (4 Bft)
20.09.2019 12:15 15,2 C 13,9 C 17,8 C 50 % 41 cb 1028,3 hPa 0,0 l/m 7,3 km/h (2 Bft) S-SO 148 60 min 0,304 mm 461 W/m 4,8 C 15,2 C 15,6 km/h (3 Bft)
20.09.2019 11:15 13,9 C 13,9 C 20,6 C 53 % 42 cb 1028,9 hPa 0,0 l/m 8,9 km/h (2 Bft) O-SO 111 60 min 0,001 mm 466 W/m 4,5 C 13,9 C 14,0 km/h (3 Bft)
20.09.2019 10:15 10,6 C 13,3 C 18,9 C 67 % 42 cb 1029,2 hPa 0,0 l/m 2,3 km/h (1 Bft) SW 215 60 min 0,101 mm 404 W/m 4,7 C 10,6 C 6,0 km/h (2 Bft)
20.09.2019 09:15 7,3 C 13,9 C 9,4 C 80 % 43 cb 1029,2 hPa 0,0 l/m 2,7 km/h (1 Bft) O-SO 116 50 min 0,051 mm 230 W/m 4,1 C 7,3 C 4,3 km/h (1 Bft)
20.09.2019 08:15 4,6 C 13,9 C 2,8 C 88 % 43 cb 1028,9 hPa 0,0 l/m 1,1 km/h (1 Bft) S-SO 165 0 min 0,000 mm 95 W/m 2,8 C 4,6 C 1,1 km/h (1 Bft)
20.09.2019 07:15 3,2 C 13,9 C 0,6 C 90 % 43 cb 1028,5 hPa 0,0 l/m 1,1 km/h (1 Bft) O-SO 119 0 min 0,000 mm 9 W/m 1,7 C 3,2 C 1,1 km/h (1 Bft)
20.09.2019 06:15 3,2 C 13,9 C 0,6 C 90 % 43 cb 1028,4 hPa 0,0 l/m 1,1 km/h (1 Bft) O-SO 119 0 min 0,000 mm 0 W/m 1,7 C 3,2 C 1,1 km/h (1 Bft)
20.09.2019 05:15 3,6 C 14,4 C 0,6 C 89 % 43 cb 1028,4 hPa 0,0 l/m 1,1 km/h (1 Bft) O-SO 119 0 min 0,000 mm 0 W/m 2,0 C 3,6 C 1,1 km/h (1 Bft)
20.09.2019 04:15 3,9 C 14,4 C 1,1 C 88 % 43 cb 1028,4 hPa 0,0 l/m 1,2 km/h (1 Bft) O-SO 119 0 min 0,000 mm 0 W/m 2,1 C 3,9 C 2,7 km/h (1 Bft)
20.09.2019 03:15 4,3 C 14,4 C 1,1 C 86 % 43 cb 1028,6 hPa 0,0 l/m 1,1 km/h (1 Bft) O-SO 119 0 min 0,000 mm 0 W/m 2,2 C 4,3 C 1,1 km/h (1 Bft)
20.09.2019 02:15 4,9 C 15,0 C 1,7 C 84 % 43 cb 1029,1 hPa 0,0 l/m 2,0 km/h (1 Bft) O-SO 119 0 min 0,000 mm 0 W/m 2,4 C 4,9 C 4,3 km/h (1 Bft)
20.09.2019 01:15 5,7 C 15,0 C 2,2 C 82 % 43 cb 1029,3 hPa 0,0 l/m 1,1 km/h (1 Bft) O-SO 119 0 min 0,000 mm 0 W/m 2,9 C 5,7 C 1,1 km/h (1 Bft)
20.09.2019 01:00 5,9 C 15,0 C 2,2 C 81 % 43 cb 1029,2 hPa 0,0 l/m 1,1 km/h (1 Bft) O-SO 119 0 min 0,000 mm 0 W/m 2,9 C 5,9 C 1,1 km/h (1 Bft)
_ Min-Zeit 06:00 09:55 07:00 14:40 10:55 00:15 - 01:00 - - - - - 06:00 06:00 01:00
Minimum _ 3,1 C 13,3 C 0,0 C 36 % 41 cb 1024,4 hPa - 1,1 km/h (1 Bft) - - - - - 1,6 C 3,1 C 1,1 km/h (1 Bft)
_ Max-Zeit 15:40 01:00 15:45 06:05 01:00 01:30 01:00 13:40 - - 08:30 14:05 13:35 11:45 15:40 13:40
Maximum _ 19,2 C 15,0 C 22,8 C 91 % 43 cb 1029,4 hPa 0,0 l/m 12,1 km/h
O-SO (2 Bft)
- - 5 min 0,431 mm 705 W/m 5,6 C 19,2 C 25,3 km/h
O-NO (4 Bft)
Durchschnitt _ 10,4 C 14,2 C 9,3 C 67 % 42 cb 1027,4 hPa #0,0 l/m 3,6 km/h (1 Bft) O-SO - #0 min. #0,000 mm 0 W/m 3,7 C 10,4 C 7,0 km/h (2 Bft)